Time;durP1;ratioP1;P1;durP2;ratioP2;P2;SDS_P1;SDS_P2;PMS_P1;PMS_P2;Temp;Humidity;BMP_temperature;BMP_pressure;BME280_temperature;BME280_humidity;BME280_pressure;Samples;Min_cycle;Max_cycle;Signal;HPM_P1;HPM_P2
2020/12/31 00:01:27;;;;;;;31.67;19.10;;;;;;;;;;5023885;28;20177;-70
2020/12/31 00:03:53;;;;;;;36.67;19.50;;;;;;;;;;5032015;28;20578;-70
2020/12/31 00:06:18;;;;;;;35.83;19.30;;;;;;;;;;5024577;28;20224;-70
2020/12/31 00:08:44;;;;;;;34.37;19.50;;;;;;;;;;5032760;28;20185;-71
2020/12/31 00:11:10;;;;;;;32.93;18.83;;;;;;;;;;5026045;28;20189;-71
2020/12/31 00:13:36;;;;;;;30.43;19.57;;;;;;;;;;5029031;28;20222;-71
2020/12/31 00:16:02;;;;;;;34.47;19.20;;;;;;;;;;5026197;28;20189;-71
2020/12/31 00:18:27;;;;;;;33.53;19.00;;;;;;;;;;5031383;28;20715;-71
2020/12/31 00:20:53;;;;;;;34.73;19.80;;;;;;;;;;5026965;28;20255;-71
2020/12/31 00:23:18;;;;;;;38.33;21.03;;;;;;;;;;5035908;28;20205;-71
2020/12/31 00:25:49;;;;;;;34.53;18.90;;;;;;;;;;5035845;28;20299;-71
2020/12/31 00:28:15;;;;;;;35.47;19.77;;;;;;;;;;5030842;28;20197;-71
2020/12/31 00:30:42;;;;;;;36.97;19.60;;;;;;;;;;5036448;28;20197;-71
2020/12/31 00:33:07;;;;;;;34.20;19.63;;;;;;;;;;5029820;28;20198;-71
2020/12/31 00:35:32;;;;;;;33.03;19.27;;;;;;;;;;5039670;28;20233;-71
2020/12/31 00:37:58;;;;;;;32.70;19.47;;;;;;;;;;5029682;28;20537;-71
2020/12/31 00:40:23;;;;;;;33.30;19.93;;;;;;;;;;5042738;28;20296;-71
2020/12/31 00:42:49;;;;;;;33.90;18.87;;;;;;;;;;5028339;28;20238;-71
2020/12/31 00:45:14;;;;;;;31.97;18.73;;;;;;;;;;5040486;28;20192;-71
2020/12/31 00:47:39;;;;;;;35.33;19.43;;;;;;;;;;5028258;28;20209;-70
2020/12/31 00:50:05;;;;;;;32.90;20.03;;;;;;;;;;5039231;28;20196;-70
2020/12/31 00:52:30;;;;;;;33.40;18.53;;;;;;;;;;5030008;28;20191;-69
2020/12/31 00:54:55;;;;;;;33.90;18.57;;;;;;;;;;5038045;28;20193;-70
2020/12/31 00:57:20;;;;;;;30.73;18.07;;;;;;;;;;5039961;28;20221;-69
2020/12/31 00:59:46;;;;;;;32.40;18.13;;;;;;;;;;5028905;28;20203;-69
2020/12/31 01:02:11;;;;;;;30.23;18.57;;;;;;;;;;5037710;28;20196;-70
2020/12/31 01:04:36;;;;;;;29.73;18.07;;;;;;;;;;5029725;28;20266;-70
2020/12/31 01:07:02;;;;;;;33.63;18.33;;;;;;;;;;5039184;28;20587;-70
2020/12/31 01:09:27;;;;;;;29.60;17.33;;;;;;;;;;5029682;28;20196;-70
2020/12/31 01:11:56;;;;;;;31.73;17.50;;;;;;;;;;5037230;28;20198;-70
2020/12/31 01:14:22;;;;;;;35.10;18.63;;;;;;;;;;5030130;28;20201;-70
2020/12/31 01:16:49;;;;;;;37.80;18.43;;;;;;;;;;5037230;28;20193;-70
2020/12/31 01:19:14;;;;;;;31.37;18.17;;;;;;;;;;5032285;28;20209;-70
2020/12/31 01:21:46;;;;;;;29.37;17.13;;;;;;;;;;5037240;28;20242;-70
2020/12/31 01:24:13;;;;;;;29.57;18.10;;;;;;;;;;5030324;28;20192;-70
2020/12/31 01:26:38;;;;;;;33.47;18.37;;;;;;;;;;5036717;28;20185;-70
2020/12/31 01:29:04;;;;;;;31.23;17.97;;;;;;;;;;5036414;28;21206;-71
2020/12/31 01:31:30;;;;;;;31.80;18.17;;;;;;;;;;5028349;28;20178;-70
2020/12/31 01:33:55;;;;;;;30.27;17.30;;;;;;;;;;5039099;28;20189;-73
2020/12/31 01:36:21;;;;;;;30.87;16.40;;;;;;;;;;5025108;28;20803;-69
2020/12/31 01:38:47;;;;;;;29.80;17.70;;;;;;;;;;5037787;28;20726;-69
2020/12/31 01:41:13;;;;;;;30.50;15.87;;;;;;;;;;5028390;28;20259;-69
2020/12/31 01:43:39;;;;;;;29.33;17.00;;;;;;;;;;5039458;28;20272;-69
2020/12/31 01:46:04;;;;;;;27.43;16.03;;;;;;;;;;5030003;28;20199;-70
2020/12/31 01:48:30;;;;;;;26.97;16.10;;;;;;;;;;5038279;28;20190;-69
2020/12/31 01:50:56;;;;;;;28.20;14.97;;;;;;;;;;5028255;28;20193;-69
2020/12/31 01:53:22;;;;;;;24.40;15.43;;;;;;;;;;5039820;28;20644;-70
2020/12/31 01:55:48;;;;;;;26.20;14.70;;;;;;;;;;5026518;28;20201;-69
2020/12/31 01:58:13;;;;;;;24.40;15.53;;;;;;;;;;5040697;28;20688;-70
2020/12/31 02:00:39;;;;;;;25.67;14.83;;;;;;;;;;5036004;28;20208;-69
2020/12/31 02:03:04;;;;;;;24.87;14.40;;;;;;;;;;5029034;28;20197;-69
2020/12/31 02:05:29;;;;;;;23.50;13.63;;;;;;;;;;5038534;28;20317;-69
2020/12/31 02:07:55;;;;;;;23.33;13.17;;;;;;;;;;5029424;28;20235;-69
2020/12/31 02:10:20;;;;;;;19.33;12.33;;;;;;;;;;5038706;28;20831;-69
2020/12/31 02:12:45;;;;;;;22.87;12.27;;;;;;;;;;5028207;28;20190;-69
2020/12/31 02:15:17;;;;;;;20.13;11.53;;;;;;;;;;5038795;28;20245;-69
2020/12/31 02:17:44;;;;;;;19.87;12.13;;;;;;;;;;5029108;28;20204;-69
2020/12/31 02:20:12;;;;;;;20.40;12.03;;;;;;;;;;5038058;28;20205;-70
2020/12/31 02:22:37;;;;;;;19.77;11.63;;;;;;;;;;5028329;28;20571;-69
2020/12/31 02:25:03;;;;;;;17.23;11.27;;;;;;;;;;5036684;28;20230;-69
2020/12/31 02:27:28;;;;;;;17.33;10.97;;;;;;;;;;5026919;28;20471;-69
2020/12/31 02:29:53;;;;;;;17.97;9.73;;;;;;;;;;5030438;28;20187;-69
2020/12/31 02:32:19;;;;;;;15.80;10.57;;;;;;;;;;5038429;28;20521;-69
2020/12/31 02:34:44;;;;;;;15.63;10.23;;;;;;;;;;5026602;28;20196;-69
2020/12/31 02:37:10;;;;;;;13.73;9.10;;;;;;;;;;5037201;28;20280;-69
2020/12/31 02:39:35;;;;;;;13.03;8.77;;;;;;;;;;5028215;28;20292;-69
2020/12/31 02:42:00;;;;;;;14.17;9.07;;;;;;;;;;5037505;28;20239;-69
2020/12/31 02:44:26;;;;;;;14.60;9.33;;;;;;;;;;5027967;28;20217;-69
2020/12/31 02:46:51;;;;;;;14.60;9.07;;;;;;;;;;5037507;28;20240;-69
2020/12/31 02:49:16;;;;;;;11.40;8.20;;;;;;;;;;5028475;28;20197;-69
2020/12/31 02:51:46;;;;;;;15.57;9.37;;;;;;;;;;5037033;28;20232;-69
2020/12/31 02:54:11;;;;;;;12.17;8.57;;;;;;;;;;5028008;28;24546;-70
2020/12/31 02:56:36;;;;;;;12.33;8.37;;;;;;;;;;5035621;28;20189;-69
2020/12/31 02:59:02;;;;;;;10.57;7.60;;;;;;;;;;5034737;28;20283;-69
2020/12/31 03:01:27;;;;;;;12.20;8.73;;;;;;;;;;5029138;28;20189;-69
2020/12/31 03:03:52;;;;;;;12.63;8.17;;;;;;;;;;5036224;28;20194;-69
2020/12/31 03:06:18;;;;;;;13.57;7.80;;;;;;;;;;5028334;28;20209;-69
2020/12/31 03:08:44;;;;;;;9.67;6.93;;;;;;;;;;5035455;28;20833;-69
2020/12/31 03:11:13;;;;;;;12.53;7.93;;;;;;;;;;5027480;28;20552;-69
2020/12/31 03:13:38;;;;;;;12.23;7.57;;;;;;;;;;5036107;28;20185;-69
2020/12/31 03:16:03;;;;;;;10.43;7.07;;;;;;;;;;5027298;28;20196;-69
2020/12/31 03:18:29;;;;;;;11.47;7.10;;;;;;;;;;5036274;28;20308;-69
2020/12/31 03:20:54;;;;;;;12.80;7.70;;;;;;;;;;5028295;28;20614;-69
2020/12/31 03:23:20;;;;;;;10.23;7.73;;;;;;;;;;5035832;28;20192;-69
2020/12/31 03:25:46;;;;;;;10.73;7.00;;;;;;;;;;5027440;28;20181;-69
2020/12/31 03:28:15;;;;;;;9.97;7.47;;;;;;;;;;5036913;28;20181;-69
2020/12/31 03:30:41;;;;;;;10.77;7.33;;;;;;;;;;5034816;28;20185;-69
2020/12/31 03:33:12;;;;;;;12.37;7.20;;;;;;;;;;5026172;28;20277;-69
2020/12/31 03:35:37;;;;;;;13.53;7.73;;;;;;;;;;5035759;28;20229;-69
2020/12/31 03:38:02;;;;;;;12.50;7.80;;;;;;;;;;5027438;28;20225;-69
2020/12/31 03:40:28;;;;;;;10.73;7.00;;;;;;;;;;5032743;28;20229;-69
2020/12/31 03:42:53;;;;;;;11.47;7.40;;;;;;;;;;5026713;28;20316;-70
2020/12/31 03:45:18;;;;;;;13.03;8.17;;;;;;;;;;5037676;28;20189;-69
2020/12/31 03:47:44;;;;;;;12.83;8.17;;;;;;;;;;5025939;28;20217;-70
2020/12/31 03:50:09;;;;;;;11.27;7.73;;;;;;;;;;5035187;28;20546;-69
2020/12/31 03:52:34;;;;;;;11.40;7.63;;;;;;;;;;5027416;28;20970;-69
2020/12/31 03:55:00;;;;;;;11.77;7.50;;;;;;;;;;5034153;28;20622;-70
2020/12/31 03:57:26;;;;;;;11.43;7.90;;;;;;;;;;5029087;28;20173;-69
2020/12/31 03:59:51;;;;;;;11.37;7.53;;;;;;;;;;5033641;28;20208;-69
2020/12/31 04:02:16;;;;;;;10.60;7.80;;;;;;;;;;5036150;28;20220;-69
2020/12/31 04:04:42;;;;;;;13.33;7.83;;;;;;;;;;5025970;28;20197;-69
2020/12/31 04:07:07;;;;;;;10.83;7.80;;;;;;;;;;5033599;28;20254;-71
2020/12/31 04:09:33;;;;;;;10.40;7.47;;;;;;;;;;5026882;28;21154;-71
2020/12/31 04:11:59;;;;;;;11.10;7.80;;;;;;;;;;5037463;28;20662;-70
2020/12/31 04:14:24;;;;;;;10.43;7.37;;;;;;;;;;5025845;28;20199;-71
2020/12/31 04:16:50;;;;;;;10.37;7.53;;;;;;;;;;5035482;28;20181;-70
2020/12/31 04:19:15;;;;;;;10.73;7.50;;;;;;;;;;5028020;28;20232;-71
2020/12/31 04:21:40;;;;;;;11.77;7.87;;;;;;;;;;5034529;28;20259;-71
2020/12/31 04:24:06;;;;;;;11.10;7.40;;;;;;;;;;5028476;28;20217;-70
2020/12/31 04:26:31;;;;;;;13.17;7.80;;;;;;;;;;5035350;28;20177;-71
2020/12/31 04:28:56;;;;;;;9.83;6.83;;;;;;;;;;5035607;28;20192;-71
2020/12/31 04:31:21;;;;;;;9.87;6.97;;;;;;;;;;5027496;28;20193;-71
2020/12/31 04:33:47;;;;;;;11.07;6.87;;;;;;;;;;5035397;28;20196;-71
2020/12/31 04:36:12;;;;;;;12.50;6.90;;;;;;;;;;5029399;28;20247;-71
2020/12/31 04:38:37;;;;;;;9.37;6.70;;;;;;;;;;5033398;28;20696;-72
2020/12/31 04:41:03;;;;;;;9.87;7.27;;;;;;;;;;5027416;28;21053;-71
2020/12/31 04:43:30;;;;;;;9.30;6.60;;;;;;;;;;5035016;28;20243;-71
2020/12/31 04:45:56;;;;;;;8.77;6.20;;;;;;;;;;5024187;28;20284;-71
2020/12/31 04:48:37;;;;;;;7.67;5.90;;;;;;;;;;5034195;28;20228;-71
2020/12/31 04:51:06;;;;;;;9.87;6.20;;;;;;;;;;5026982;28;20728;-70
2020/12/31 04:53:32;;;;;;;9.13;5.77;;;;;;;;;;5034175;28;20239;-71
2020/12/31 04:56:01;;;;;;;8.43;6.07;;;;;;;;;;5027644;28;20201;-71
2020/12/31 04:58:27;;;;;;;8.80;6.00;;;;;;;;;;5034242;28;20220;-71
2020/12/31 05:00:52;;;;;;;8.23;5.40;;;;;;;;;;5027716;28;20279;-71
2020/12/31 05:03:18;;;;;;;8.27;5.30;;;;;;;;;;5033024;28;20201;-71
2020/12/31 05:05:44;;;;;;;8.33;5.80;;;;;;;;;;5036531;28;20197;-71
2020/12/31 05:08:10;;;;;;;6.03;5.00;;;;;;;;;;5027853;28;20189;-71
2020/12/31 05:10:35;;;;;;;6.17;4.80;;;;;;;;;;5035464;28;20196;-72
2020/12/31 05:13:02;;;;;;;6.30;4.90;;;;;;;;;;5027846;28;20196;-72
2020/12/31 05:15:41;;;;;;;7.50;4.73;;;;;;;;;;5038506;28;20185;-71
2020/12/31 05:18:19;;;;;;;6.87;4.90;;;;;;;;;;5030538;28;20209;-71
2020/12/31 05:20:46;;;;;;;7.10;4.50;;;;;;;;;;5036744;28;20197;-71
2020/12/31 05:23:32;;;;;;;7.77;4.43;;;;;;;;;;5029908;28;20200;-72
2020/12/31 05:25:58;;;;;;;8.97;4.70;;;;;;;;;;5037517;28;20209;-71
2020/12/31 05:28:30;;;;;;;7.43;5.07;;;;;;;;;;5029633;28;20243;-71
2020/12/31 05:31:02;;;;;;;5.83;4.40;;;;;;;;;;5038245;28;20189;-71
2020/12/31 05:33:33;;;;;;;6.83;5.07;;;;;;;;;;5026878;28;20189;-71
2020/12/31 05:36:17;;;;;;;8.60;5.23;;;;;;;;;;5039121;28;20225;-71
2020/12/31 05:38:54;;;;;;;8.47;5.03;;;;;;;;;;5027303;28;20217;-71
2020/12/31 05:41:21;;;;;;;6.33;4.90;;;;;;;;;;5036373;28;20238;-71
2020/12/31 05:43:53;;;;;;;6.93;4.67;;;;;;;;;;5029050;28;20197;-71
2020/12/31 05:46:18;;;;;;;7.33;5.07;;;;;;;;;;5037671;28;20197;-71
2020/12/31 05:48:43;;;;;;;7.33;5.30;;;;;;;;;;5028539;28;20194;-71
2020/12/31 05:51:23;;;;;;;6.67;5.13;;;;;;;;;;5037818;28;20216;-71
2020/12/31 05:53:50;;;;;;;6.80;4.67;;;;;;;;;;5027599;28;20208;-71
2020/12/31 05:56:17;;;;;;;7.37;5.10;;;;;;;;;;5036736;28;20219;-71
2020/12/31 05:58:49;;;;;;;9.13;5.63;;;;;;;;;;5032245;28;20197;-71
2020/12/31 06:01:15;;;;;;;7.40;5.77;;;;;;;;;;5034675;28;20648;-71
2020/12/31 06:03:49;;;;;;;7.60;5.73;;;;;;;;;;5037186;28;20204;-71
2020/12/31 06:06:17;;;;;;;7.47;5.90;;;;;;;;;;5029122;28;20209;-71
2020/12/31 06:08:54;;;;;;;8.73;5.80;;;;;;;;;;5035329;28;20267;-71
2020/12/31 06:11:31;;;;;;;7.03;5.47;;;;;;;;;;5027962;28;20846;-71
2020/12/31 06:13:57;;;;;;;7.70;6.03;;;;;;;;;;5038236;28;20306;-71
2020/12/31 06:16:26;;;;;;;9.87;6.23;;;;;;;;;;5027327;28;20189;-71
2020/12/31 06:19:00;;;;;;;9.03;6.13;;;;;;;;;;5036621;28;20683;-71
2020/12/31 06:21:39;;;;;;;10.43;6.87;;;;;;;;;;5024318;28;20623;-71
2020/12/31 06:24:10;;;;;;;9.00;6.60;;;;;;;;;;5036936;28;20521;-71
2020/12/31 06:26:39;;;;;;;8.67;6.40;;;;;;;;;;5025912;28;20205;-71
2020/12/31 06:29:05;;;;;;;10.20;7.17;;;;;;;;;;5038511;28;20665;-71
2020/12/31 06:31:30;;;;;;;12.03;6.80;;;;;;;;;;5025808;28;20263;-71
2020/12/31 06:33:55;;;;;;;9.87;6.53;;;;;;;;;;5037364;28;20574;-71
2020/12/31 06:36:21;;;;;;;10.43;7.77;;;;;;;;;;5026173;28;20711;-71
2020/12/31 06:38:51;;;;;;;11.60;8.00;;;;;;;;;;5035586;28;20585;-71
2020/12/31 06:41:31;;;;;;;10.40;7.27;;;;;;;;;;5028338;28;21190;-71
2020/12/31 06:44:16;;;;;;;11.83;7.60;;;;;;;;;;5034608;28;20194;-71
2020/12/31 06:46:47;;;;;;;11.30;8.10;;;;;;;;;;5025130;28;20265;-71
2020/12/31 06:49:13;;;;;;;12.37;8.10;;;;;;;;;;5035023;28;20189;-71
2020/12/31 06:51:39;;;;;;;11.47;7.57;;;;;;;;;;5029343;28;20189;-71
2020/12/31 06:54:05;;;;;;;11.97;8.10;;;;;;;;;;5034515;28;20192;-71
2020/12/31 06:56:39;;;;;;;12.27;7.63;;;;;;;;;;5036539;28;20197;-71
2020/12/31 06:59:23;;;;;;;12.33;8.57;;;;;;;;;;5026328;28;20291;-71
2020/12/31 07:01:48;;;;;;;12.13;8.60;;;;;;;;;;5033262;28;20292;-71
2020/12/31 07:04:35;;;;;;;26.60;17.00;;;;;;;;;;5025107;28;20738;-71
2020/12/31 07:07:23;;;;;;;27.97;18.83;;;;;;;;;;5033740;28;20213;-71
2020/12/31 07:09:59;;;;;;;43.97;29.37;;;;;;;;;;5025044;28;20255;-71
2020/12/31 07:12:39;;;;;;;29.83;19.83;;;;;;;;;;5034735;28;20193;-71
2020/12/31 07:15:06;;;;;;;27.77;19.17;;;;;;;;;;5024876;28;20208;-71
2020/12/31 07:17:36;;;;;;;33.53;24.10;;;;;;;;;;5034408;28;20193;-71
2020/12/31 07:20:03;;;;;;;17.43;11.00;;;;;;;;;;5026549;28;20259;-71
2020/12/31 07:22:29;;;;;;;16.83;9.60;;;;;;;;;;5034773;28;20774;-71
2020/12/31 07:25:06;;;;;;;13.67;9.53;;;;;;;;;;5024491;28;20628;-71
2020/12/31 07:27:37;;;;;;;16.17;10.17;;;;;;;;;;4337905;28;10001069;-71
2020/12/31 07:30:08;;;;;;;18.33;11.83;;;;;;;;;;5023681;28;20865;-71
2020/12/31 07:32:53;;;;;;;19.13;14.07;;;;;;;;;;5026238;28;20185;-71
2020/12/31 07:35:40;;;;;;;15.20;10.30;;;;;;;;;;5024975;28;20692;-70
2020/12/31 07:38:07;;;;;;;14.37;10.00;;;;;;;;;;5033263;28;20553;-71
2020/12/31 07:40:37;;;;;;;15.03;9.57;;;;;;;;;;5022142;28;20212;-71
2020/12/31 07:43:05;;;;;;;17.17;10.53;;;;;;;;;;5028629;28;20669;-71
2020/12/31 07:45:32;;;;;;;15.93;9.37;;;;;;;;;;5022602;28;20201;-71
2020/12/31 07:47:58;;;;;;;50.70;35.07;;;;;;;;;;5029487;28;20209;-71
2020/12/31 07:50:25;;;;;;;44.50;26.63;;;;;;;;;;5025207;28;20208;-71
2020/12/31 07:52:51;;;;;;;43.53;25.77;;;;;;;;;;5030126;28;20195;-71
2020/12/31 07:55:16;;;;;;;42.43;27.13;;;;;;;;;;5025695;28;20182;-71
2020/12/31 07:57:42;;;;;;;67.67;40.17;;;;;;;;;;5030490;28;20265;-71
2020/12/31 08:00:18;;;;;;;47.73;27.10;;;;;;;;;;5032966;28;20672;-71
2020/12/31 08:02:57;;;;;;;40.57;25.07;;;;;;;;;;5026174;28;20705;-71
2020/12/31 08:05:24;;;;;;;30.93;18.90;;;;;;;;;;5031529;28;20181;-71
2020/12/31 08:07:57;;;;;;;28.20;17.90;;;;;;;;;;5019605;28;20221;-71
2020/12/31 08:10:23;;;;;;;19.83;12.97;;;;;;;;;;5031427;28;20197;-71
2020/12/31 08:12:54;;;;;;;17.90;12.03;;;;;;;;;;5018643;28;20220;-71
2020/12/31 08:15:21;;;;;;;20.83;12.20;;;;;;;;;;5030799;28;20193;-71
2020/12/31 08:17:54;;;;;;;18.23;12.23;;;;;;;;;;5020008;28;20173;-71
2020/12/31 08:20:22;;;;;;;18.13;12.50;;;;;;;;;;5031248;28;20242;-71
2020/12/31 08:22:56;;;;;;;18.10;11.97;;;;;;;;;;5022962;28;21622;-70
2020/12/31 08:25:24;;;;;;;29.30;17.73;;;;;;;;;;5030227;28;20193;-70
2020/12/31 08:27:51;;;;;;;22.23;13.47;;;;;;;;;;5023717;28;20200;-70
2020/12/31 08:30:20;;;;;;;26.10;16.73;;;;;;;;;;5030844;28;20236;-71
2020/12/31 08:32:52;;;;;;;35.83;22.87;;;;;;;;;;5023500;28;20284;-71
2020/12/31 08:35:28;;;;;;;26.43;17.30;;;;;;;;;;5028836;28;20225;-71
2020/12/31 08:37:59;;;;;;;23.83;16.23;;;;;;;;;;5023412;28;20187;-71
2020/12/31 08:40:24;;;;;;;31.57;19.57;;;;;;;;;;5028468;28;20548;-71
2020/12/31 08:42:54;;;;;;;41.63;25.10;;;;;;;;;;5022786;28;20184;-71
2020/12/31 08:45:31;;;;;;;39.00;23.37;;;;;;;;;;5036693;28;20204;-71
2020/12/31 08:48:14;;;;;;;33.63;20.17;;;;;;;;;;5030257;28;20192;-71
2020/12/31 08:50:40;;;;;;;75.13;44.77;;;;;;;;;;5034094;28;20193;-70
2020/12/31 08:53:06;;;;;;;85.60;58.23;;;;;;;;;;5035363;28;20196;-70
2020/12/31 08:55:36;;;;;;;89.53;55.40;;;;;;;;;;5026518;28;20278;-70
2020/12/31 08:58:15;;;;;;;67.43;41.13;;;;;;;;;;5035387;28;20257;-70
2020/12/31 09:00:40;;;;;;;64.20;42.33;;;;;;;;;;5025345;28;20226;-71
2020/12/31 09:03:06;;;;;;;45.30;28.93;;;;;;;;;;5034166;28;20316;-71
2020/12/31 09:05:31;;;;;;;44.87;29.63;;;;;;;;;;5026963;28;20201;-71
2020/12/31 09:08:07;;;;;;;41.03;26.20;;;;;;;;;;5034075;28;20284;-71
2020/12/31 09:10:37;;;;;;;35.07;23.23;;;;;;;;;;5025469;28;20189;-71
2020/12/31 09:13:04;;;;;;;54.30;34.47;;;;;;;;;;5035109;28;20607;-71
2020/12/31 09:15:29;;;;;;;72.93;45.27;;;;;;;;;;5025429;28;21802;-71
2020/12/31 09:17:55;;;;;;;30.23;18.37;;;;;;;;;;5032527;28;20193;-71
2020/12/31 09:20:26;;;;;;;28.13;18.30;;;;;;;;;;5023704;28;20268;-71
2020/12/31 09:22:52;;;;;;;41.63;25.23;;;;;;;;;;5032380;28;20682;-71
2020/12/31 09:25:18;;;;;;;25.80;16.73;;;;;;;;;;5024064;28;20824;-71
2020/12/31 09:27:45;;;;;;;23.07;16.17;;;;;;;;;;5032023;28;20296;-71
2020/12/31 09:30:12;;;;;;;26.07;16.30;;;;;;;;;;5031074;28;20511;-71
2020/12/31 09:32:38;;;;;;;37.30;23.37;;;;;;;;;;5023519;28;20209;-71
2020/12/31 09:35:05;;;;;;;34.00;20.27;;;;;;;;;;5030458;28;20235;-71
2020/12/31 09:37:57;;;;;;;32.50;19.17;;;;;;;;;;5025929;28;20679;-71
2020/12/31 09:40:23;;;;;;;61.00;35.13;;;;;;;;;;5032856;28;20240;-72
2020/12/31 09:42:49;;;;;;;22.43;15.33;;;;;;;;;;5022088;28;20193;-72
2020/12/31 09:45:15;;;;;;;24.03;14.27;;;;;;;;;;5035185;28;20239;-72
2020/12/31 09:47:40;;;;;;;23.37;15.20;;;;;;;;;;5025048;28;20189;-72
2020/12/31 09:50:09;;;;;;;21.77;13.43;;;;;;;;;;5032372;28;20664;-70
2020/12/31 09:52:34;;;;;;;22.87;14.77;;;;;;;;;;5024543;28;20197;-70
2020/12/31 09:55:00;;;;;;;18.57;11.60;;;;;;;;;;5032943;28;20701;-71
2020/12/31 09:57:25;;;;;;;25.80;17.17;;;;;;;;;;5026232;28;20190;-71
2020/12/31 09:59:51;;;;;;;14.97;10.03;;;;;;;;;;5034404;28;20739;-71
2020/12/31 10:02:16;;;;;;;17.57;11.73;;;;;;;;;;5025024;28;20196;-72
2020/12/31 10:04:41;;;;;;;14.87;10.10;;;;;;;;;;5034814;28;20605;-71
2020/12/31 10:07:07;;;;;;;29.23;19.10;;;;;;;;;;5030654;28;20224;-71
2020/12/31 10:09:32;;;;;;;33.70;22.07;;;;;;;;;;5022681;28;20272;-72
2020/12/31 10:11:57;;;;;;;36.97;23.70;;;;;;;;;;5029231;28;20197;-71
2020/12/31 10:14:23;;;;;;;52.63;31.93;;;;;;;;;;5023996;28;20262;-71
2020/12/31 10:16:50;;;;;;;28.57;18.97;;;;;;;;;;5034104;28;20235;-71
2020/12/31 10:19:16;;;;;;;29.17;18.90;;;;;;;;;;5006645;28;20210;-71
2020/12/31 10:21:45;;;;;;;31.20;19.80;;;;;;;;;;5030959;28;20200;-71
2020/12/31 10:24:11;;;;;;;35.10;25.73;;;;;;;;;;5023933;28;20185;-71
2020/12/31 10:26:36;;;;;;;28.77;18.03;;;;;;;;;;5033521;28;20223;-71
2020/12/31 10:29:01;;;;;;;33.53;25.87;;;;;;;;;;5024571;28;20278;-73
2020/12/31 10:31:27;;;;;;;17.80;11.67;;;;;;;;;;5033693;28;20276;-72
2020/12/31 10:33:52;;;;;;;15.83;10.47;;;;;;;;;;5025042;28;20547;-70
2020/12/31 10:36:17;;;;;;;18.80;10.67;;;;;;;;;;5033126;28;20572;-71
2020/12/31 10:38:43;;;;;;;11.63;8.00;;;;;;;;;;5033588;28;20225;-72
2020/12/31 10:41:12;;;;;;;16.03;9.73;;;;;;;;;;5026553;28;20660;-70
2020/12/31 10:43:37;;;;;;;12.93;8.67;;;;;;;;;;5034679;28;21201;-70
2020/12/31 10:46:02;;;;;;;12.03;7.70;;;;;;;;;;5023246;28;20803;-71
2020/12/31 10:48:28;;;;;;;13.70;8.10;;;;;;;;;;5034228;28;20185;-72
2020/12/31 10:50:57;;;;;;;15.07;11.07;;;;;;;;;;5025866;28;20190;-71
2020/12/31 10:53:22;;;;;;;14.93;11.50;;;;;;;;;;5036883;28;20185;-72
2020/12/31 10:55:47;;;;;;;12.50;8.33;;;;;;;;;;5023271;28;20192;-70
2020/12/31 10:58:12;;;;;;;28.00;18.93;;;;;;;;;;5034340;28;20623;-70
2020/12/31 11:00:38;;;;;;;15.20;10.57;;;;;;;;;;5025309;28;20185;-71
2020/12/31 11:03:03;;;;;;;47.23;30.90;;;;;;;;;;5037669;28;20189;-71
2020/12/31 11:05:28;;;;;;;46.20;31.57;;;;;;;;;;5035583;28;20213;-71
2020/12/31 11:07:54;;;;;;;35.50;23.80;;;;;;;;;;5007408;28;20228;-70
2020/12/31 11:10:19;;;;;;;20.90;13.50;;;;;;;;;;5030502;28;20189;-70
2020/12/31 11:12:45;;;;;;;13.43;8.87;;;;;;;;;;5025793;28;20205;-70
2020/12/31 11:15:10;;;;;;;20.67;12.57;;;;;;;;;;5036171;28;20198;-70
2020/12/31 11:17:37;;;;;;;22.40;15.23;;;;;;;;;;5025664;28;20239;-70
2020/12/31 11:20:03;;;;;;;14.00;9.00;;;;;;;;;;5037611;28;20213;-70
2020/12/31 11:22:28;;;;;;;22.43;14.93;;;;;;;;;;5030330;28;20768;-71
2020/12/31 11:24:55;;;;;;;24.93;15.20;;;;;;;;;;5030368;28;20193;-70
2020/12/31 11:27:20;;;;;;;21.73;15.50;;;;;;;;;;5024668;28;20194;-70
2020/12/31 11:29:45;;;;;;;20.73;14.03;;;;;;;;;;5033370;28;20527;-70
2020/12/31 11:32:11;;;;;;;28.57;17.80;;;;;;;;;;5026424;28;20239;-71
2020/12/31 11:34:36;;;;;;;115.10;82.90;;;;;;;;;;5033805;28;20717;-70
2020/12/31 11:37:02;;;;;;;25.77;19.00;;;;;;;;;;5034429;28;20233;-70
2020/12/31 11:39:27;;;;;;;21.63;14.77;;;;;;;;;;5025054;28;20209;-70
2020/12/31 11:41:59;;;;;;;24.93;16.00;;;;;;;;;;5035189;28;20189;-70
2020/12/31 11:44:25;;;;;;;33.87;21.70;;;;;;;;;;5024141;28;20197;-70
2020/12/31 11:46:51;;;;;;;20.93;14.23;;;;;;;;;;5033559;28;20200;-70
2020/12/31 11:49:17;;;;;;;18.77;14.00;;;;;;;;;;5024984;28;20182;-70
2020/12/31 11:51:42;;;;;;;29.70;21.03;;;;;;;;;;5035191;28;20189;-70
2020/12/31 11:54:08;;;;;;;19.17;12.90;;;;;;;;;;5023422;28;20710;-70
2020/12/31 11:56:34;;;;;;;13.60;8.50;;;;;;;;;;5036164;28;20213;-70
2020/12/31 11:59:01;;;;;;;15.30;10.17;;;;;;;;;;5027276;28;20197;-70
2020/12/31 12:01:26;;;;;;;21.97;14.23;;;;;;;;;;5031610;28;20231;-70
2020/12/31 12:03:51;;;;;;;28.63;19.67;;;;;;;;;;5024741;28;20196;-70
2020/12/31 12:06:17;;;;;;;43.17;28.60;;;;;;;;;;5030801;28;20288;-70
2020/12/31 12:08:42;;;;;;;18.10;11.63;;;;;;;;;;5030228;28;20181;-70
2020/12/31 12:11:07;;;;;;;17.20;11.90;;;;;;;;;;5025462;28;20535;-70
2020/12/31 12:13:33;;;;;;;23.73;17.07;;;;;;;;;;5033530;28;20637;-70
2020/12/31 12:15:58;;;;;;;40.60;27.63;;;;;;;;;;5027114;28;20195;-70
2020/12/31 12:18:24;;;;;;;55.33;40.43;;;;;;;;;;5036709;28;20208;-70
2020/12/31 12:20:50;;;;;;;27.27;18.93;;;;;;;;;;5032649;28;20758;-70
2020/12/31 12:23:16;;;;;;;23.03;15.27;;;;;;;;;;5038032;28;20193;-70
2020/12/31 12:25:42;;;;;;;27.57;17.73;;;;;;;;;;5032091;28;20672;-70
2020/12/31 12:28:07;;;;;;;23.97;15.97;;;;;;;;;;5037916;28;20212;-70
2020/12/31 12:30:32;;;;;;;18.90;11.63;;;;;;;;;;5031325;28;20544;-70
2020/12/31 12:32:58;;;;;;;18.97;12.60;;;;;;;;;;5031991;28;20199;-70
2020/12/31 12:35:23;;;;;;;25.07;16.63;;;;;;;;;;5032186;28;20641;-70
2020/12/31 12:37:48;;;;;;;26.63;17.83;;;;;;;;;;5036375;28;20185;-70
2020/12/31 12:40:14;;;;;;;27.33;17.90;;;;;;;;;;5040807;28;20210;-70
2020/12/31 12:42:40;;;;;;;25.13;18.67;;;;;;;;;;5029113;28;20201;-70
2020/12/31 12:45:06;;;;;;;22.03;14.10;;;;;;;;;;5040639;28;20539;-70
2020/12/31 12:47:33;;;;;;;17.30;12.07;;;;;;;;;;5030536;28;20245;-70
2020/12/31 12:49:58;;;;;;;24.10;16.53;;;;;;;;;;5038821;28;20571;-69
2020/12/31 12:52:24;;;;;;;69.00;41.80;;;;;;;;;;5028571;28;20280;-69
2020/12/31 12:54:49;;;;;;;65.80;41.77;;;;;;;;;;5039070;28;20181;-69
2020/12/31 12:57:14;;;;;;;41.63;27.20;;;;;;;;;;5027555;28;20197;-69
2020/12/31 12:59:40;;;;;;;81.00;53.63;;;;;;;;;;5036836;28;20263;-70
2020/12/31 13:02:06;;;;;;;84.53;56.30;;;;;;;;;;5029530;28;20730;-70
2020/12/31 13:04:31;;;;;;;62.53;40.43;;;;;;;;;;5037467;28;20640;-70
2020/12/31 13:06:56;;;;;;;38.90;25.60;;;;;;;;;;5040543;28;20209;-70
2020/12/31 13:09:25;;;;;;;97.67;74.63;;;;;;;;;;5028224;28;20627;-69
2020/12/31 13:11:50;;;;;;;41.13;29.47;;;;;;;;;;5037421;28;20189;-69
2020/12/31 13:14:16;;;;;;;44.40;28.90;;;;;;;;;;5030867;28;20187;-70
2020/12/31 13:16:42;;;;;;;24.60;15.53;;;;;;;;;;5037612;28;20600;-70
2020/12/31 13:19:07;;;;;;;39.43;28.07;;;;;;;;;;5031456;28;20205;-70
2020/12/31 13:21:32;;;;;;;83.10;48.77;;;;;;;;;;5035536;28;20200;-70
2020/12/31 13:23:58;;;;;;;26.33;17.70;;;;;;;;;;5030178;28;20599;-70
2020/12/31 13:26:23;;;;;;;41.00;25.07;;;;;;;;;;5037203;28;20197;-70
2020/12/31 13:28:51;;;;;;;29.10;18.47;;;;;;;;;;5030585;28;20323;-70
2020/12/31 13:31:16;;;;;;;37.30;24.93;;;;;;;;;;5038190;28;20683;-70
2020/12/31 13:33:42;;;;;;;94.90;55.30;;;;;;;;;;5029081;28;20185;-70
2020/12/31 13:36:07;;;;;;;113.40;56.43;;;;;;;;;;5036477;28;20236;-70
2020/12/31 13:38:32;;;;;;;77.23;38.73;;;;;;;;;;5037378;28;20323;-70
2020/12/31 13:40:58;;;;;;;161.30;60.33;;;;;;;;;;5028060;28;20678;-70
2020/12/31 13:43:23;;;;;;;82.10;31.03;;;;;;;;;;5037784;28;20662;-70
2020/12/31 13:45:49;;;;;;;89.97;39.33;;;;;;;;;;5028161;28;20384;-70
2020/12/31 13:48:17;;;;;;;55.60;27.13;;;;;;;;;;5038136;28;20173;-70
2020/12/31 13:50:43;;;;;;;27.77;14.80;;;;;;;;;;5027976;28;20185;-70
2020/12/31 13:53:08;;;;;;;43.17;23.97;;;;;;;;;;5039627;28;20193;-70
2020/12/31 13:55:33;;;;;;;42.10;23.27;;;;;;;;;;5026368;28;20657;-70
2020/12/31 13:57:59;;;;;;;26.07;15.57;;;;;;;;;;5037568;28;20617;-70
2020/12/31 14:00:24;;;;;;;29.57;17.10;;;;;;;;;;5029642;28;20268;-70
2020/12/31 14:02:50;;;;;;;21.57;12.77;;;;;;;;;;5037321;28;20216;-70
2020/12/31 14:05:15;;;;;;;20.73;11.80;;;;;;;;;;5038620;28;20185;-70
2020/12/31 14:07:40;;;;;;;18.83;12.77;;;;;;;;;;5029727;28;20209;-70
2020/12/31 14:10:07;;;;;;;19.30;12.70;;;;;;;;;;5035116;28;20197;-70
2020/12/31 14:12:33;;;;;;;23.80;16.27;;;;;;;;;;5027367;28;20205;-70
2020/12/31 14:14:58;;;;;;;26.40;18.50;;;;;;;;;;5034483;28;20531;-70
2020/12/31 14:17:26;;;;;;;25.43;16.20;;;;;;;;;;5046335;28;20192;-70
2020/12/31 14:19:51;;;;;;;23.43;16.20;;;;;;;;;;5036330;28;20231;-70
2020/12/31 14:22:18;;;;;;;35.07;22.10;;;;;;;;;;5031201;28;20660;-70
2020/12/31 14:24:44;;;;;;;33.47;19.77;;;;;;;;;;5035959;28;20545;-70